Terminal Aerodrome Forecast
Issued by NWS

Home | Current Version | Previous Version | Text Only | Print | Product List | Glossary On
Versions: 1 2 3 4 5 6 7 8 9 10 11 12 13 14 15
000
FTUS45 KTFX 010535
TAFCTB
TAF
KCTB 010535Z 0106/0206 VRB04KT 4SM HZ FEW060
     FM011400 32014KT P6SM BKN090
     FM012100 35010G20KT P6SM SCT050 BKN090 PROB30 0121/0202 -TSRA
      BKN050CB
     FM020200 04009KT P6SM SCT080 BKN150=

USA.gov is the U.S. government's official web portal to all federal, state and local government web resources and services.